sensor_id;sensor_type;location;lat;lon;timestamp;pressure;altitude;pressure_sealevel;temperature;humidity
46223;BME280;31943;51.410;7.564;2022-07-23T00:01:05;100516.28;;;19.22;65.61
46223;BME280;31943;51.410;7.564;2022-07-23T00:03:31;100507.41;;;19.23;65.47
46223;BME280;31943;51.410;7.564;2022-07-23T00:05:56;100503.00;;;19.23;65.37
46223;BME280;31943;51.410;7.564;2022-07-23T00:08:22;100500.38;;;19.23;65.59
46223;BME280;31943;51.410;7.564;2022-07-23T00:10:48;100509.19;;;19.22;65.79
46223;BME280;31943;51.410;7.564;2022-07-23T00:13:15;100512.75;;;19.21;66.23
46223;BME280;31943;51.410;7.564;2022-07-23T00:15:41;100516.28;;;19.22;66.34
46223;BME280;31943;51.410;7.564;2022-07-23T00:18:07;100533.03;;;19.21;66.15
46223;BME280;31943;51.410;7.564;2022-07-23T00:20:32;100541.81;;;19.23;65.93
46223;BME280;31943;51.410;7.564;2022-07-23T00:22:58;100532.16;;;19.22;66.31
46223;BME280;31943;51.410;7.564;2022-07-23T00:25:24;100518.94;;;19.20;66.43
46223;BME280;31943;51.410;7.564;2022-07-23T00:27:49;100500.56;;;19.14;66.83
46223;BME280;31943;51.410;7.564;2022-07-23T00:30:16;100506.84;;;19.08;67.01
46223;BME280;31943;51.410;7.564;2022-07-23T00:32:46;100496.41;;;19.02;67.15
46223;BME280;31943;51.410;7.564;2022-07-23T00:35:12;100492.94;;;18.99;67.51
46223;BME280;31943;51.410;7.564;2022-07-23T00:37:38;100492.13;;;18.95;67.70
46223;BME280;31943;51.410;7.564;2022-07-23T00:40:04;100501.81;;;18.96;67.84
46223;BME280;31943;51.410;7.564;2022-07-23T00:42:31;100496.53;;;18.96;67.97
46223;BME280;31943;51.410;7.564;2022-07-23T00:44:56;100499.16;;;18.96;68.35
46223;BME280;31943;51.410;7.564;2022-07-23T00:47:23;100504.50;;;18.94;68.23
46223;BME280;31943;51.410;7.564;2022-07-23T00:49:49;100501.88;;;18.91;67.78
46223;BME280;31943;51.410;7.564;2022-07-23T00:52:14;100488.66;;;18.93;67.78
46223;BME280;31943;51.410;7.564;2022-07-23T00:54:40;100485.97;;;18.94;67.96
46223;BME280;31943;51.410;7.564;2022-07-23T00:57:06;100478.91;;;18.95;68.48
46223;BME280;31943;51.410;7.564;2022-07-23T00:59:33;100477.19;;;18.94;68.17
46223;BME280;31943;51.410;7.564;2022-07-23T01:01:58;100478.03;;;18.94;68.42
46223;BME280;31943;51.410;7.564;2022-07-23T01:04:25;100475.41;;;18.93;68.22
46223;BME280;31943;51.410;7.564;2022-07-23T01:06:51;100476.34;;;18.92;68.57
46223;BME280;31943;51.410;7.564;2022-07-23T01:09:18;100475.41;;;18.93;68.36
46223;BME280;31943;51.410;7.564;2022-07-23T01:11:44;100476.31;;;18.93;68.02
46223;BME280;31943;51.410;7.564;2022-07-23T01:14:14;100460.41;;;18.95;67.65
46223;BME280;31943;51.410;7.564;2022-07-23T01:16:40;100464.81;;;18.94;68.17
46223;BME280;31943;51.410;7.564;2022-07-23T01:19:06;100457.81;;;18.93;67.76
46223;BME280;31943;51.410;7.564;2022-07-23T01:21:36;100462.28;;;18.90;67.85
46223;BME280;31943;51.410;7.564;2022-07-23T01:24:05;100464.19;;;18.82;68.36
46223;BME280;31943;51.410;7.564;2022-07-23T01:26:31;100461.66;;;18.75;68.20
46223;BME280;31943;51.410;7.564;2022-07-23T01:28:56;100463.44;;;18.73;67.89
46223;BME280;31943;51.410;7.564;2022-07-23T01:31:22;100470.50;;;18.74;68.15
46223;BME280;31943;51.410;7.564;2022-07-23T01:33:48;100476.63;;;18.76;68.27
46223;BME280;31943;51.410;7.564;2022-07-23T01:36:14;100475.69;;;18.79;68.49
46223;BME280;31943;51.410;7.564;2022-07-23T01:38:39;100478.31;;;18.79;68.63
46223;BME280;31943;51.410;7.564;2022-07-23T01:41:06;100475.69;;;18.79;68.57
46223;BME280;31943;51.410;7.564;2022-07-23T01:43:32;100468.63;;;18.81;68.35
46223;BME280;31943;51.410;7.564;2022-07-23T01:45:58;100464.25;;;18.77;68.70
46223;BME280;31943;51.410;7.564;2022-07-23T01:48:23;100445.06;;;18.69;68.57
46223;BME280;31943;51.410;7.564;2022-07-23T01:50:50;100448.56;;;18.68;68.75
46223;BME280;31943;51.410;7.564;2022-07-23T01:53:15;100447.69;;;18.69;69.30
46223;BME280;31943;51.410;7.564;2022-07-23T01:55:41;100439.78;;;18.67;69.14
46223;BME280;31943;51.410;7.564;2022-07-23T01:58:08;100440.72;;;18.66;69.03
46223;BME280;31943;51.410;7.564;2022-07-23T02:00:34;100439.94;;;18.60;69.00
46223;BME280;31943;51.410;7.564;2022-07-23T02:03:00;100434.81;;;18.52;69.07
46223;BME280;31943;51.410;7.564;2022-07-23T02:05:26;100436.69;;;18.47;69.06
46223;BME280;31943;51.410;7.564;2022-07-23T02:07:51;100436.84;;;18.39;69.37
46223;BME280;31943;51.410;7.564;2022-07-23T02:10:17;100446.53;;;18.38;69.38
46223;BME280;31943;51.410;7.564;2022-07-23T02:12:43;100446.53;;;18.38;69.38
46223;BME280;31943;51.410;7.564;2022-07-23T02:15:10;100450.91;;;18.40;69.26
46223;BME280;31943;51.410;7.564;2022-07-23T02:17:37;100445.63;;;18.38;69.24
46223;BME280;31943;51.410;7.564;2022-07-23T02:20:03;100448.28;;;18.38;69.59
46223;BME280;31943;51.410;7.564;2022-07-23T02:22:29;100445.63;;;18.40;69.66
46223;BME280;31943;51.410;7.564;2022-07-23T02:24:55;100442.94;;;18.43;69.23
46223;BME280;31943;51.410;7.564;2022-07-23T02:27:20;100442.84;;;18.47;69.50
46223;BME280;31943;51.410;7.564;2022-07-23T02:29:46;100437.50;;;18.50;69.62
46223;BME280;31943;51.410;7.564;2022-07-23T02:32:13;100438.38;;;18.51;69.56
46223;BME280;31943;51.410;7.564;2022-07-23T02:34:39;100435.78;;;18.46;69.67
46223;BME280;31943;51.410;7.564;2022-07-23T02:37:04;100432.38;;;18.41;69.73
46223;BME280;31943;51.410;7.564;2022-07-23T02:39:30;100431.56;;;18.37;70.19
46223;BME280;31943;51.410;7.564;2022-07-23T02:41:55;100431.56;;;18.37;70.20
46223;BME280;31943;51.410;7.564;2022-07-23T02:44:21;100445.63;;;18.40;69.70
46223;BME280;31943;51.410;7.564;2022-07-23T02:46:47;100451.75;;;18.42;69.54
46223;BME280;31943;51.410;7.564;2022-07-23T02:49:14;100445.53;;;18.44;69.65
46223;BME280;31943;51.410;7.564;2022-07-23T02:51:41;100450.78;;;18.46;69.48
46223;BME280;31943;51.410;7.564;2022-07-23T02:54:06;100453.41;;;18.47;68.83
46223;BME280;31943;51.410;7.564;2022-07-23T02:56:32;100446.34;;;18.46;68.67
46223;BME280;31943;51.410;7.564;2022-07-23T02:58:58;100438.50;;;18.45;68.39
46223;BME280;31943;51.410;7.564;2022-07-23T03:01:24;100434.16;;;18.41;68.71
46223;BME280;31943;51.410;7.564;2022-07-23T03:03:49;100434.19;;;18.39;68.71
46223;BME280;31943;51.410;7.564;2022-07-23T03:06:16;100436.00;;;18.35;68.62
46223;BME280;31943;51.410;7.564;2022-07-23T03:08:42;100439.63;;;18.31;68.83
46223;BME280;31943;51.410;7.564;2022-07-23T03:11:08;100444.91;;;18.30;68.32
46223;BME280;31943;51.410;7.564;2022-07-23T03:13:34;100440.56;;;18.27;68.09
46223;BME280;31943;51.410;7.564;2022-07-23T03:15:59;100443.25;;;18.26;68.25
46223;BME280;31943;51.410;7.564;2022-07-23T03:18:25;100447.69;;;18.24;68.11
46223;BME280;31943;51.410;7.564;2022-07-23T03:20:51;100451.25;;;18.21;68.03
46223;BME280;31943;51.410;7.564;2022-07-23T03:23:18;100442.50;;;18.19;67.97
46223;BME280;31943;51.410;7.564;2022-07-23T03:25:43;100445.19;;;18.14;68.28
46223;BME280;31943;51.410;7.564;2022-07-23T03:28:09;100438.25;;;18.09;68.00
46223;BME280;31943;51.410;7.564;2022-07-23T03:30:34;100440.06;;;18.07;67.82
46223;BME280;31943;51.410;7.564;2022-07-23T03:33:00;100449.78;;;18.05;67.62
46223;BME280;31943;51.410;7.564;2022-07-23T03:35:26;100452.47;;;18.02;67.09
46223;BME280;31943;51.410;7.564;2022-07-23T03:37:52;100451.66;;;17.98;67.07
46223;BME280;31943;51.410;7.564;2022-07-23T03:40:19;100440.28;;;17.94;66.90
46223;BME280;31943;51.410;7.564;2022-07-23T03:42:45;100436.81;;;17.89;67.06
46223;BME280;31943;51.410;7.564;2022-07-23T03:45:10;100436.06;;;17.84;67.06
46223;BME280;31943;51.410;7.564;2022-07-23T03:47:36;100429.00;;;17.82;67.40
46223;BME280;31943;51.410;7.564;2022-07-23T03:50:03;100432.56;;;17.79;67.58
46223;BME280;31943;51.410;7.564;2022-07-23T03:52:29;100436.13;;;17.78;67.33
46223;BME280;31943;51.410;7.564;2022-07-23T03:54:54;100436.97;;;17.80;67.64
46223;BME280;31943;51.410;7.564;2022-07-23T03:57:21;100443.97;;;17.81;67.43
46223;BME280;31943;51.410;7.564;2022-07-23T03:59:47;100441.34;;;17.81;67.41
46223;BME280;31943;51.410;7.564;2022-07-23T04:02:12;100442.19;;;17.82;67.63
46223;BME280;31943;51.410;7.564;2022-07-23T04:04:38;100444.91;;;17.80;68.03
46223;BME280;31943;51.410;7.564;2022-07-23T04:07:04;100447.56;;;17.78;68.38
46223;BME280;31943;51.410;7.564;2022-07-23T04:09:29;100450.13;;;17.82;68.26
46223;BME280;31943;51.410;7.564;2022-07-23T04:11:55;100447.47;;;17.83;68.27
46223;BME280;31943;51.410;7.564;2022-07-23T04:14:22;100455.50;;;17.77;67.97
46223;BME280;31943;51.410;7.564;2022-07-23T04:16:47;100458.16;;;17.75;68.35
46223;BME280;31943;51.410;7.564;2022-07-23T04:19:13;100461.63;;;17.77;68.14
46223;BME280;31943;51.410;7.564;2022-07-23T04:21:39;100461.59;;;17.81;68.35
46223;BME280;31943;51.410;7.564;2022-07-23T04:24:05;100458.03;;;17.82;68.41
46223;BME280;31943;51.410;7.564;2022-07-23T04:26:31;100469.44;;;17.87;68.49
46223;BME280;31943;51.410;7.564;2022-07-23T04:28:58;100456.22;;;17.90;68.61
46223;BME280;31943;51.410;7.564;2022-07-23T04:31:25;100446.50;;;17.92;68.59
46223;BME280;31943;51.410;7.564;2022-07-23T04:33:50;100454.34;;;17.93;68.70
46223;BME280;31943;51.410;7.564;2022-07-23T04:36:16;100454.34;;;17.93;69.39
46223;BME280;31943;51.410;7.564;2022-07-23T04:38:42;100458.75;;;17.96;69.64
46223;BME280;31943;51.410;7.564;2022-07-23T04:41:08;100457.81;;;17.98;69.90
46223;BME280;31943;51.410;7.564;2022-07-23T04:43:34;100466.56;;;18.01;69.67
46223;BME280;31943;51.410;7.564;2022-07-23T04:46:00;100465.59;;;18.06;69.90
46223;BME280;31943;51.410;7.564;2022-07-23T04:48:28;100469.06;;;18.08;69.66
46223;BME280;31943;51.410;7.564;2022-07-23T04:50:53;100470.78;;;18.11;69.85
46223;BME280;31943;51.410;7.564;2022-07-23T04:53:19;100467.25;;;18.13;69.77
46223;BME280;31943;51.410;7.564;2022-07-23T04:55:45;100472.44;;;18.18;69.70
46223;BME280;31943;51.410;7.564;2022-07-23T04:58:11;100482.88;;;18.24;69.53
46223;BME280;31943;51.410;7.564;2022-07-23T05:00:37;100477.63;;;18.23;69.63
46223;BME280;31943;51.410;7.564;2022-07-23T05:03:03;100484.84;;;18.13;69.82
46223;BME280;31943;51.410;7.564;2022-07-23T05:05:31;100487.66;;;18.04;69.77
46223;BME280;31943;51.410;7.564;2022-07-23T05:07:56;100498.34;;;17.94;70.20
46223;BME280;31943;51.410;7.564;2022-07-23T05:10:22;100496.03;;;17.73;70.70
46223;BME280;31943;51.410;7.564;2022-07-23T05:12:48;100507.72;;;17.56;71.37
46223;BME280;31943;51.410;7.564;2022-07-23T05:15:13;100510.41;;;17.52;71.54
46223;BME280;31943;51.410;7.564;2022-07-23T05:17:39;100509.56;;;17.48;71.80
46223;BME280;31943;51.410;7.564;2022-07-23T05:20:05;100511.34;;;17.46;71.90
46223;BME280;31943;51.410;7.564;2022-07-23T05:22:33;100507.84;;;17.47;71.81
46223;BME280;31943;51.410;7.564;2022-07-23T05:24:59;100506.94;;;17.48;71.86
46223;BME280;31943;51.410;7.564;2022-07-23T05:27:24;100513.16;;;17.44;71.82
46223;BME280;31943;51.410;7.564;2022-07-23T05:29:50;100511.50;;;17.37;72.01
46223;BME280;31943;51.410;7.564;2022-07-23T05:32:16;100513.22;;;17.39;72.21
46223;BME280;31943;51.410;7.564;2022-07-23T05:34:42;100511.41;;;17.43;72.05
46223;BME280;31943;51.410;7.564;2022-07-23T05:37:07;100521.03;;;17.47;72.25
46223;BME280;31943;51.410;7.564;2022-07-23T05:39:35;100532.41;;;17.52;71.93
46223;BME280;31943;51.410;7.564;2022-07-23T05:42:01;100524.53;;;17.49;71.91
46223;BME280;31943;51.410;7.564;2022-07-23T05:44:32;100529.81;;;17.49;72.00
46223;BME280;31943;51.410;7.564;2022-07-23T05:46:58;100529.72;;;17.54;71.86
46223;BME280;31943;51.410;7.564;2022-07-23T05:49:24;100532.25;;;17.62;71.53
46223;BME280;31943;51.410;7.564;2022-07-23T05:51:49;100529.50;;;17.69;71.66
46223;BME280;31943;51.410;7.564;2022-07-23T05:54:15;100532.91;;;17.77;71.08
46223;BME280;31943;51.410;7.564;2022-07-23T05:56:42;100540.75;;;17.82;71.33
46223;BME280;31943;51.410;7.564;2022-07-23T05:59:07;100537.22;;;17.82;71.19
46223;BME280;31943;51.410;7.564;2022-07-23T06:01:34;100541.66;;;17.81;71.21
46223;BME280;31943;51.410;7.564;2022-07-23T06:04:00;100542.47;;;17.88;70.91
46223;BME280;31943;51.410;7.564;2022-07-23T06:06:25;100544.19;;;17.90;70.43
46223;BME280;31943;51.410;7.564;2022-07-23T06:08:51;100544.09;;;17.95;70.58
46223;BME280;31943;51.410;7.564;2022-07-23T06:11:17;100544.94;;;17.97;70.31
46223;BME280;31943;51.410;7.564;2022-07-23T06:13:44;100545.78;;;18.01;70.36
46223;BME280;31943;51.410;7.564;2022-07-23T06:16:10;100549.28;;;18.03;69.84
46223;BME280;31943;51.410;7.564;2022-07-23T06:18:36;100547.47;;;18.06;69.66
46223;BME280;31943;51.410;7.564;2022-07-23T06:21:03;100537.72;;;18.10;69.46
46223;BME280;31943;51.410;7.564;2022-07-23T06:23:29;100549.16;;;18.09;69.32
46223;BME280;31943;51.410;7.564;2022-07-23T06:25:55;100548.28;;;18.10;69.46
46223;BME280;31943;51.410;7.564;2022-07-23T06:28:20;100556.13;;;18.13;69.29
46223;BME280;31943;51.410;7.564;2022-07-23T06:30:48;100547.22;;;18.20;68.94
46223;BME280;31943;51.410;7.564;2022-07-23T06:33:13;100563.88;;;18.25;68.98
46223;BME280;31943;51.410;7.564;2022-07-23T06:35:39;100553.38;;;18.21;68.33
46223;BME280;31943;51.410;7.564;2022-07-23T06:38:05;100558.66;;;18.21;68.77
46223;BME280;31943;51.410;7.564;2022-07-23T06:40:31;100560.44;;;18.18;68.48
46223;BME280;31943;51.410;7.564;2022-07-23T06:42:56;100561.28;;;18.22;68.58
46223;BME280;31943;51.410;7.564;2022-07-23T06:45:22;100566.41;;;18.31;68.33
46223;BME280;31943;51.410;7.564;2022-07-23T06:47:49;100567.16;;;18.40;68.19
46223;BME280;31943;51.410;7.564;2022-07-23T06:50:15;100575.81;;;18.48;67.71
46223;BME280;31943;51.410;7.564;2022-07-23T06:52:41;100568.59;;;18.57;67.69
46223;BME280;31943;51.410;7.564;2022-07-23T06:55:08;100576.47;;;18.62;67.22
46223;BME280;31943;51.410;7.564;2022-07-23T06:57:34;100578.19;;;18.63;66.98
46223;BME280;31943;51.410;7.564;2022-07-23T07:00:00;100578.16;;;18.66;66.83
46223;BME280;31943;51.410;7.564;2022-07-23T07:02:25;100577.06;;;18.76;66.75
46223;BME280;31943;51.410;7.564;2022-07-23T07:04:53;100569.84;;;18.88;66.96
46223;BME280;31943;51.410;7.564;2022-07-23T07:07:18;100570.47;;;19.01;66.41
46223;BME280;31943;51.410;7.564;2022-07-23T07:09:44;100583.56;;;19.07;65.60
46223;BME280;31943;51.410;7.564;2022-07-23T07:12:10;100585.88;;;19.24;65.65
46223;BME280;31943;51.410;7.564;2022-07-23T07:14:36;100581.72;;;19.54;64.78
46223;BME280;31943;51.410;7.564;2022-07-23T07:17:01;100573.34;;;19.75;64.18
46223;BME280;31943;51.410;7.564;2022-07-23T07:19:27;100582.00;;;19.84;63.70
46223;BME280;31943;51.410;7.564;2022-07-23T07:21:54;100581.34;;;19.74;64.15
46223;BME280;31943;51.410;7.564;2022-07-23T07:24:19;100591.88;;;19.75;63.88
46223;BME280;31943;51.410;7.564;2022-07-23T07:26:45;100583.88;;;19.79;63.97
46223;BME280;31943;51.410;7.564;2022-07-23T07:29:12;100588.97;;;19.88;64.03
46223;BME280;31943;51.410;7.564;2022-07-23T07:31:37;100579.09;;;19.94;63.48
46223;BME280;31943;51.410;7.564;2022-07-23T07:34:03;100586.00;;;20.02;63.32
46223;BME280;31943;51.410;7.564;2022-07-23T07:36:29;100588.50;;;20.08;63.02
46223;BME280;31943;51.410;7.564;2022-07-23T07:38:56;100586.50;;;20.18;63.04
46223;BME280;31943;51.410;7.564;2022-07-23T07:41:21;100586.94;;;20.35;61.83
46223;BME280;31943;51.410;7.564;2022-07-23T07:43:47;100600.91;;;20.42;62.21
46223;BME280;31943;51.410;7.564;2022-07-23T07:46:12;100596.38;;;20.47;62.11
46223;BME280;31943;51.410;7.564;2022-07-23T07:48:38;100602.19;;;20.63;61.76
46223;BME280;31943;51.410;7.564;2022-07-23T07:51:04;100602.50;;;20.83;61.25
46223;BME280;31943;51.410;7.564;2022-07-23T07:53:30;100604.91;;;20.94;60.48
46223;BME280;31943;51.410;7.564;2022-07-23T07:55:58;100607.78;;;21.18;60.10
46223;BME280;31943;51.410;7.564;2022-07-23T07:58:24;100619.13;;;21.23;59.80
46223;BME280;31943;51.410;7.564;2022-07-23T08:00:49;100619.59;;;21.06;59.02
46223;BME280;31943;51.410;7.564;2022-07-23T08:03:15;100621.16;;;20.82;60.42
46223;BME280;31943;51.410;7.564;2022-07-23T08:05:40;100615.41;;;20.64;60.87
46223;BME280;31943;51.410;7.564;2022-07-23T08:08:06;100612.44;;;20.77;60.57
46223;BME280;31943;51.410;7.564;2022-07-23T08:10:32;100617.38;;;20.90;60.56
46223;BME280;31943;51.410;7.564;2022-07-23T08:12:59;100618.63;;;21.08;60.09
46223;BME280;31943;51.410;7.564;2022-07-23T08:15:26;100626.66;;;21.38;59.32
46223;BME280;31943;51.410;7.564;2022-07-23T08:17:53;100612.66;;;21.64;58.44
46223;BME280;31943;51.410;7.564;2022-07-23T08:20:20;100622.94;;;21.75;57.92
46223;BME280;31943;51.410;7.564;2022-07-23T08:22:49;100626.91;;;21.91;57.31
46223;BME280;31943;51.410;7.564;2022-07-23T08:25:15;100627.16;;;22.10;56.40
46223;BME280;31943;51.410;7.564;2022-07-23T08:27:41;100623.00;;;22.31;56.00
46223;BME280;31943;51.410;7.564;2022-07-23T08:30:09;100631.97;;;22.54;55.86
46223;BME280;31943;51.410;7.564;2022-07-23T08:32:50;100629.75;;;22.68;55.49
46223;BME280;31943;51.410;7.564;2022-07-23T08:35:16;100635.09;;;22.67;54.48
46223;BME280;31943;51.410;7.564;2022-07-23T08:37:42;100635.44;;;22.83;54.40
46223;BME280;31943;51.410;7.564;2022-07-23T08:40:08;100630.03;;;22.86;54.30
46223;BME280;31943;51.410;7.564;2022-07-23T08:42:38;100635.41;;;22.84;54.43
46223;BME280;31943;51.410;7.564;2022-07-23T08:45:05;100640.53;;;22.64;53.89
46223;BME280;31943;51.410;7.564;2022-07-23T08:47:33;100648.66;;;22.33;53.51
46223;BME280;31943;51.410;7.564;2022-07-23T08:50:01;100644.16;;;22.05;54.82
46223;BME280;31943;51.410;7.564;2022-07-23T08:52:26;100645.34;;;21.96;56.21
46223;BME280;31943;51.410;7.564;2022-07-23T08:54:53;100640.88;;;21.97;56.47
46223;BME280;31943;51.410;7.564;2022-07-23T08:57:19;100648.91;;;21.95;56.02
46223;BME280;31943;51.410;7.564;2022-07-23T08:59:45;100642.28;;;21.80;56.81
46223;BME280;31943;51.410;7.564;2022-07-23T09:02:12;100637.69;;;21.85;56.86
46223;BME280;31943;51.410;7.564;2022-07-23T09:04:39;100643.47;;;22.28;54.17
46223;BME280;31943;51.410;7.564;2022-07-23T09:07:05;100639.13;;;22.52;53.78
46223;BME280;31943;51.410;7.564;2022-07-23T09:09:31;100642.44;;;22.85;53.19
46223;BME280;31943;51.410;7.564;2022-07-23T09:12:04;100632.50;;;23.17;51.52
46223;BME280;31943;51.410;7.564;2022-07-23T09:14:36;100637.22;;;23.09;51.38
46223;BME280;31943;51.410;7.564;2022-07-23T09:17:09;100632.88;;;23.06;51.20
46223;BME280;31943;51.410;7.564;2022-07-23T09:19:34;100636.84;;;22.93;51.54
46223;BME280;31943;51.410;7.564;2022-07-23T09:22:20;100638.09;;;23.09;52.14
46223;BME280;31943;51.410;7.564;2022-07-23T09:25:05;100637.59;;;23.23;50.71
46223;BME280;31943;51.410;7.564;2022-07-23T09:27:50;100630.38;;;23.27;50.44
46223;BME280;31943;51.410;7.564;2022-07-23T09:30:16;100637.44;;;23.52;50.81
46223;BME280;31943;51.410;7.564;2022-07-23T09:32:42;100638.72;;;23.41;51.00
46223;BME280;31943;51.410;7.564;2022-07-23T09:35:07;100634.78;;;23.52;49.06
46223;BME280;31943;51.410;7.564;2022-07-23T09:37:35;100639.28;;;23.49;50.11
46223;BME280;31943;51.410;7.564;2022-07-23T09:40:04;100637.63;;;23.47;50.99
46223;BME280;31943;51.410;7.564;2022-07-23T09:42:30;100636.63;;;23.73;49.62
46223;BME280;31943;51.410;7.564;2022-07-23T09:44:57;100639.47;;;23.68;49.53
46223;BME280;31943;51.410;7.564;2022-07-23T09:47:25;100646.94;;;23.84;50.11
46223;BME280;31943;51.410;7.564;2022-07-23T09:50:02;100646.63;;;23.68;50.50
46223;BME280;31943;51.410;7.564;2022-07-23T09:52:28;100649.84;;;23.53;50.43
46223;BME280;31943;51.410;7.564;2022-07-23T09:55:00;100642.06;;;23.23;51.63
46223;BME280;31943;51.410;7.564;2022-07-23T09:57:26;100645.91;;;23.14;51.52
46223;BME280;31943;51.410;7.564;2022-07-23T09:59:52;100639.25;;;23.51;50.86
46223;BME280;31943;51.410;7.564;2022-07-23T10:02:18;100645.31;;;24.02;50.23
46223;BME280;31943;51.410;7.564;2022-07-23T10:04:46;100651.78;;;24.18;49.71
46223;BME280;31943;51.410;7.564;2022-07-23T10:07:13;100638.13;;;24.48;50.12
46223;BME280;31943;51.410;7.564;2022-07-23T10:09:42;100635.63;;;24.23;48.92
46223;BME280;31943;51.410;7.564;2022-07-23T10:12:13;100635.72;;;23.98;49.68
46223;BME280;31943;51.410;7.564;2022-07-23T10:14:39;100634.25;;;23.89;48.91
46223;BME280;31943;51.410;7.564;2022-07-23T10:17:05;100638.00;;;24.07;47.48
46223;BME280;31943;51.410;7.564;2022-07-23T10:19:31;100640.56;;;24.10;47.75
46223;BME280;31943;51.410;7.564;2022-07-23T10:22:00;100641.91;;;24.20;47.29
46223;BME280;31943;51.410;7.564;2022-07-23T10:24:36;100637.81;;;24.34;48.13
46223;BME280;31943;51.410;7.564;2022-07-23T10:27:22;100632.63;;;24.53;45.85
46223;BME280;31943;51.410;7.564;2022-07-23T10:29:55;100640.53;;;24.76;45.09
46223;BME280;31943;51.410;7.564;2022-07-23T10:32:35;100630.34;;;24.86;44.39
46223;BME280;31943;51.410;7.564;2022-07-23T10:35:09;100630.50;;;24.61;43.88
46223;BME280;31943;51.410;7.564;2022-07-23T10:37:38;100631.66;;;24.11;46.27
46223;BME280;31943;51.410;7.564;2022-07-23T10:40:13;100633.72;;;24.03;46.72
46223;BME280;31943;51.410;7.564;2022-07-23T10:42:40;100622.78;;;24.33;47.22
46223;BME280;31943;51.410;7.564;2022-07-23T10:45:29;100630.72;;;24.77;45.37
46223;BME280;31943;51.410;7.564;2022-07-23T10:48:11;100634.31;;;25.17;45.76
46223;BME280;31943;51.410;7.564;2022-07-23T10:50:37;100630.78;;;25.37;44.77
46223;BME280;31943;51.410;7.564;2022-07-23T10:53:14;100632.66;;;25.54;43.23
46223;BME280;31943;51.410;7.564;2022-07-23T10:55:43;100630.06;;;25.33;42.26
46223;BME280;31943;51.410;7.564;2022-07-23T10:58:11;100629.94;;;24.95;43.37
46223;BME280;31943;51.410;7.564;2022-07-23T11:00:42;100621.66;;;24.60;45.40
46223;BME280;31943;51.410;7.564;2022-07-23T11:03:30;100628.00;;;24.78;44.52
46223;BME280;31943;51.410;7.564;2022-07-23T11:05:56;100621.03;;;24.95;43.63
46223;BME280;31943;51.410;7.564;2022-07-23T11:08:22;100618.50;;;25.12;44.04
46223;BME280;31943;51.410;7.564;2022-07-23T11:10:50;100619.38;;;25.33;44.61
46223;BME280;31943;51.410;7.564;2022-07-23T11:13:40;100615.34;;;25.43;43.17
46223;BME280;31943;51.410;7.564;2022-07-23T11:16:11;100614.13;;;25.70;43.38
46223;BME280;31943;51.410;7.564;2022-07-23T11:19:04;100614.22;;;25.68;41.83
46223;BME280;31943;51.410;7.564;2022-07-23T11:21:46;100614.13;;;25.70;43.14
46223;BME280;31943;51.410;7.564;2022-07-23T11:24:15;100609.44;;;25.75;42.67
46223;BME280;31943;51.410;7.564;2022-07-23T11:26:43;100613.38;;;25.85;42.08
46223;BME280;31943;51.410;7.564;2022-07-23T11:32:28;100613.25;;;25.88;41.88
46223;BME280;31943;51.410;7.564;2022-07-23T11:34:55;100610.25;;;25.96;41.85
46223;BME280;31943;51.410;7.564;2022-07-23T11:37:32;100611.91;;;25.98;42.44
46223;BME280;31943;51.410;7.564;2022-07-23T11:39:58;100610.75;;;26.04;41.12
46223;BME280;31943;51.410;7.564;2022-07-23T11:42:24;100606.09;;;25.89;41.89
46223;BME280;31943;51.410;7.564;2022-07-23T11:44:50;100608.47;;;26.14;42.31
46223;BME280;31943;51.410;7.564;2022-07-23T11:47:22;100614.59;;;26.35;42.34
46223;BME280;31943;51.410;7.564;2022-07-23T11:49:52;100610.50;;;26.45;41.85
46223;BME280;31943;51.410;7.564;2022-07-23T11:52:18;100613.25;;;26.43;40.95
46223;BME280;31943;51.410;7.564;2022-07-23T11:54:48;100612.09;;;26.13;39.58
46223;BME280;31943;51.410;7.564;2022-07-23T11:57:14;100623.00;;;26.08;39.71
46223;BME280;31943;51.410;7.564;2022-07-23T11:59:40;100616.38;;;25.98;38.81
46223;BME280;31943;51.410;7.564;2022-07-23T12:02:07;100614.28;;;25.85;39.61
46223;BME280;31943;51.410;7.564;2022-07-23T12:04:42;100617.47;;;25.94;40.44
46223;BME280;31943;51.410;7.564;2022-07-23T12:07:23;100619.03;;;26.17;40.17
46223;BME280;31943;51.410;7.564;2022-07-23T12:09:49;100606.53;;;26.17;38.82
46223;BME280;31943;51.410;7.564;2022-07-23T12:12:15;100605.50;;;26.20;39.77
46223;BME280;31943;51.410;7.564;2022-07-23T12:14:47;100608.44;;;26.33;39.71
46223;BME280;31943;51.410;7.564;2022-07-23T12:17:13;100612.63;;;26.38;38.88
46223;BME280;31943;51.410;7.564;2022-07-23T12:19:41;100605.94;;;26.47;38.25
46223;BME280;31943;51.410;7.564;2022-07-23T12:22:06;100607.72;;;26.29;37.69
46223;BME280;31943;51.410;7.564;2022-07-23T12:24:56;100610.78;;;26.21;38.74
46223;BME280;31943;51.410;7.564;2022-07-23T12:27:22;100609.44;;;26.30;38.98
46223;BME280;31943;51.410;7.564;2022-07-23T12:29:49;100601.84;;;26.57;38.61
46223;BME280;31943;51.410;7.564;2022-07-23T12:32:22;100609.50;;;26.82;37.88
46223;BME280;31943;51.410;7.564;2022-07-23T12:34:51;100595.59;;;26.76;37.37
46223;BME280;31943;51.410;7.564;2022-07-23T12:37:27;100593.75;;;26.76;37.38
46223;BME280;31943;51.410;7.564;2022-07-23T12:39:53;100602.00;;;26.89;37.71
46223;BME280;31943;51.410;7.564;2022-07-23T12:42:19;100594.16;;;27.19;37.13
46223;BME280;31943;51.410;7.564;2022-07-23T12:45:06;100595.00;;;27.37;36.63
46223;BME280;31943;51.410;7.564;2022-07-23T12:47:53;100599.19;;;27.43;36.65
46223;BME280;31943;51.410;7.564;2022-07-23T12:50:42;100595.34;;;27.31;35.13
46223;BME280;31943;51.410;7.564;2022-07-23T12:53:11;100598.69;;;27.52;36.29
46223;BME280;31943;51.410;7.564;2022-07-23T12:55:38;100593.13;;;27.71;36.17